Time;durP1;ratioP1;P1;durP2;ratioP2;P2;SDS_P1;SDS_P2;PMS_P1;PMS_P2;Temp;Humidity;BMP_temperature;BMP_pressure;BME280_temperature;BME280_humidity;BME280_pressure;Samples;Min_cycle;Max_cycle;Signal;HPM_P1;HPM_P2
2023/05/20 00:00:58;;;;;;;1999.90;999.90;;;11.40;99.90;;;;;;5050988;28;20021;-73
2023/05/20 00:03:24;;;;;;;1999.90;999.90;;;11.30;99.90;;;;;;5052592;28;20346;-73
2023/05/20 00:05:49;;;;;;;1999.90;999.90;;;11.30;99.90;;;;;;5052609;28;20045;-72
2023/05/20 00:08:17;;;;;;;1999.90;999.90;;;11.20;99.90;;;;;;5057215;28;20049;-79
2023/05/20 00:10:43;;;;;;;1999.90;999.90;;;11.30;99.90;;;;;;5072430;28;20029;-72
2023/05/20 00:13:08;;;;;;;1999.90;999.90;;;11.20;99.90;;;;;;5071649;28;20557;-72
2023/05/20 00:15:35;;;;;;;1999.90;999.90;;;11.10;99.90;;;;;;5072466;28;20016;-79
2023/05/20 00:18:01;;;;;;;1999.90;999.90;;;11.10;99.90;;;;;;5072280;28;20083;-79
2023/05/20 00:20:27;;;;;;;1999.90;999.90;;;11.00;99.90;;;;;;5072532;28;20028;-72
2023/05/20 00:22:52;;;;;;;1999.90;999.90;;;11.00;99.90;;;;;;5074484;28;20431;-79
2023/05/20 00:25:18;;;;;;;1999.90;999.90;;;11.00;99.90;;;;;;5076215;28;20021;-79
2023/05/20 00:27:45;;;;;;;1999.90;999.90;;;11.00;99.90;;;;;;5076472;28;20111;-79
2023/05/20 00:30:11;;;;;;;1999.90;999.90;;;10.90;99.90;;;;;;5076407;28;20074;-73
2023/05/20 00:32:37;;;;;;;1999.90;999.90;;;10.90;99.90;;;;;;5076723;28;20032;-72
2023/05/20 00:35:03;;;;;;;1999.90;999.90;;;10.90;99.90;;;;;;5076345;28;20387;-79
2023/05/20 00:37:29;;;;;;;1999.90;999.90;;;10.90;99.90;;;;;;5076297;28;20418;-72
2023/05/20 00:39:54;;;;;;;1999.90;999.90;;;10.80;99.90;;;;;;5076326;28;20028;-79
2023/05/20 00:42:24;;;;;;;1999.90;999.90;;;10.80;99.90;;;;;;5076187;28;20515;-72
2023/05/20 00:44:50;;;;;;;1999.90;999.90;;;10.80;99.90;;;;;;5076231;28;20016;-72
2023/05/20 00:47:18;;;;;;;1999.90;999.90;;;10.70;99.90;;;;;;5076072;28;20437;-79
2023/05/20 00:49:48;;;;;;;1999.90;999.90;;;10.70;99.90;;;;;;5075262;28;20021;-79
2023/05/20 00:52:14;;;;;;;1999.90;999.90;;;10.70;99.90;;;;;;5076035;28;20052;-79
2023/05/20 00:54:40;;;;;;;1999.90;999.90;;;10.70;99.90;;;;;;5076070;28;20064;-72
2023/05/20 00:57:07;;;;;;;1999.90;999.90;;;10.70;99.90;;;;;;5075261;28;20067;-72
2023/05/20 00:59:34;;;;;;;1999.90;999.90;;;10.60;99.90;;;;;;5075510;28;20036;-79
2023/05/20 01:02:01;;;;;;;1999.90;999.90;;;10.60;99.90;;;;;;5064123;28;20048;-78
2023/05/20 01:04:27;;;;;;;1999.90;999.90;;;10.60;99.90;;;;;;5056182;28;20044;-79
2023/05/20 01:06:54;;;;;;;1999.90;999.90;;;10.50;99.90;;;;;;5055662;28;20045;-73
2023/05/20 01:09:20;;;;;;;1999.90;999.90;;;10.50;99.90;;;;;;5069407;28;20056;-72
2023/05/20 01:11:58;;;;;;;1999.90;999.90;;;10.50;99.90;;;;;;5075590;28;20055;-79
2023/05/20 01:14:28;;;;;;;1999.90;999.90;;;10.40;99.90;;;;;;5075276;28;20044;-79
2023/05/20 01:16:57;;;;;;;1999.90;999.90;;;10.40;99.90;;;;;;5075366;28;20503;-79
2023/05/20 01:19:42;;;;;;;1999.90;999.90;;;10.40;99.90;;;;;;5075612;28;20073;-79
2023/05/20 01:22:11;;;;;;;1999.90;999.90;;;10.40;99.90;;;;;;5075546;28;20020;-72
2023/05/20 01:24:40;;;;;;;1999.90;999.90;;;10.40;99.90;;;;;;5074364;28;20021;-72
2023/05/20 01:27:09;;;;;;;1999.90;999.90;;;10.40;99.90;;;;;;5075520;28;20017;-79
2023/05/20 01:29:35;;;;;;;1999.90;999.90;;;10.30;99.90;;;;;;5075373;28;20039;-78
2023/05/20 01:32:04;;;;;;;1999.90;999.90;;;10.40;99.90;;;;;;5075206;28;20024;-78
2023/05/20 01:34:31;;;;;;;1999.90;999.90;;;10.40;99.90;;;;;;5074972;28;20023;-72
2023/05/20 01:36:56;;;;;;;1999.90;999.90;;;10.40;99.90;;;;;;5075024;28;20107;-73
2023/05/20 01:39:24;;;;;;;1999.90;999.90;;;10.30;99.90;;;;;;5075047;28;20092;-79
2023/05/20 01:41:50;;;;;;;1999.90;999.90;;;10.40;99.90;;;;;;5074965;28;20029;-72
2023/05/20 01:44:15;;;;;;;1999.90;999.90;;;10.30;99.90;;;;;;5075151;28;20085;-72
2023/05/20 01:46:41;;;;;;;1999.90;999.90;;;10.30;99.90;;;;;;5056559;28;20034;-72
2023/05/20 01:49:07;;;;;;;1999.90;999.90;;;10.30;99.90;;;;;;5075123;28;20107;-79
2023/05/20 01:51:34;;;;;;;1999.90;999.90;;;10.30;99.90;;;;;;5074240;28;20481;-78
2023/05/20 01:53:59;;;;;;;1999.90;999.90;;;10.30;99.90;;;;;;5075393;28;20036;-79
2023/05/20 01:56:25;;;;;;;1999.90;999.90;;;10.30;99.90;;;;;;5074895;28;20115;-79
2023/05/20 01:58:51;;;;;;;1999.90;999.90;;;10.30;99.90;;;;;;5075023;28;20043;-79
2023/05/20 02:01:16;;;;;;;1999.90;999.90;;;10.30;99.90;;;;;;5074509;28;20044;-72
2023/05/20 02:03:42;;;;;;;1999.90;999.90;;;10.30;99.90;;;;;;5074773;28;20032;-79
2023/05/20 02:06:07;;;;;;;1999.90;999.90;;;10.30;99.90;;;;;;5074757;28;20506;-79
2023/05/20 02:08:33;;;;;;;1999.90;999.90;;;10.30;99.90;;;;;;5074456;28;20127;-79
2023/05/20 02:10:58;;;;;;;1999.90;999.90;;;10.20;99.90;;;;;;5074412;28;20032;-79
2023/05/20 02:13:24;;;;;;;1999.90;999.90;;;10.20;99.90;;;;;;5074511;28;20083;-72
2023/05/20 02:15:50;;;;;;;1999.90;999.90;;;10.20;99.90;;;;;;5074418;28;20021;-73
2023/05/20 02:18:18;;;;;;;1999.90;999.90;;;10.20;99.90;;;;;;5074494;28;20503;-79
2023/05/20 02:20:44;;;;;;;1999.90;999.90;;;10.20;99.90;;;;;;5074455;28;20028;-79
2023/05/20 02:23:10;;;;;;;1999.90;999.90;;;10.20;99.90;;;;;;5074463;28;20538;-72
2023/05/20 02:25:36;;;;;;;1999.90;999.90;;;10.20;99.90;;;;;;5074172;28;20048;-73
2023/05/20 02:28:04;;;;;;;1999.90;999.90;;;10.10;99.90;;;;;;5074183;28;20024;-72
2023/05/20 02:30:30;;;;;;;1999.90;999.90;;;10.10;99.90;;;;;;5074376;28;20062;-79
2023/05/20 02:32:56;;;;;;;1999.90;999.90;;;10.10;99.90;;;;;;5074250;28;20021;-79
2023/05/20 02:35:22;;;;;;;1999.90;999.90;;;10.10;99.90;;;;;;5074030;28;20020;-79
2023/05/20 02:37:48;;;;;;;1999.90;999.90;;;10.10;99.90;;;;;;5073888;28;20483;-79
2023/05/20 02:40:13;;;;;;;1999.90;999.90;;;10.10;99.90;;;;;;5073922;28;20472;-72
2023/05/20 02:42:40;;;;;;;1999.90;999.90;;;10.00;99.90;;;;;;5073709;28;20154;-72
2023/05/20 02:45:06;;;;;;;1999.90;999.90;;;10.00;99.90;;;;;;5073202;28;20032;-72
2023/05/20 02:47:32;;;;;;;1999.90;999.90;;;10.00;99.90;;;;;;5072332;28;20056;-78
2023/05/20 02:49:57;;;;;;;1999.90;999.90;;;10.00;99.90;;;;;;5073951;28;20490;-79
2023/05/20 02:52:23;;;;;;;1999.90;999.90;;;9.90;99.90;;;;;;5072978;28;20052;-72
2023/05/20 02:54:49;;;;;;;1999.90;999.90;;;9.90;99.90;;;;;;5073927;28;20032;-72
2023/05/20 02:57:15;;;;;;;1999.90;999.90;;;9.90;99.90;;;;;;5073644;28;20471;-79
2023/05/20 02:59:41;;;;;;;1999.90;999.90;;;9.90;99.90;;;;;;5073260;28;20017;-78
2023/05/20 03:02:06;;;;;;;1999.90;999.90;;;9.90;99.90;;;;;;5073343;28;20027;-79
2023/05/20 03:04:32;;;;;;;1999.90;999.90;;;9.90;99.90;;;;;;5074074;28;20029;-79
2023/05/20 03:06:57;;;;;;;1999.90;999.90;;;9.80;99.90;;;;;;5055370;28;20049;-72
2023/05/20 03:09:23;;;;;;;1999.90;999.90;;;9.80;99.90;;;;;;5059400;28;20029;-79
2023/05/20 03:11:49;;;;;;;1999.90;999.90;;;9.80;99.90;;;;;;5053106;28;20495;-78
2023/05/20 03:14:15;;;;;;;1999.90;999.90;;;9.80;99.90;;;;;;5053413;28;20044;-72
2023/05/20 03:16:41;;;;;;;1999.90;999.90;;;9.80;99.90;;;;;;5053517;28;20099;-72
2023/05/20 03:19:06;;;;;;;1999.90;999.90;;;9.80;99.90;;;;;;5053828;28;20037;-72
2023/05/20 03:21:33;;;;;;;1999.90;999.90;;;9.80;99.90;;;;;;5053313;28;20560;-73
2023/05/20 03:23:58;;;;;;;1999.90;999.90;;;9.80;99.90;;;;;;5053416;28;20068;-79
2023/05/20 03:26:24;;;;;;;1999.90;999.90;;;9.80;99.90;;;;;;5053232;28;20025;-79
2023/05/20 03:28:50;;;;;;;1999.90;999.90;;;9.80;99.90;;;;;;5053436;28;20458;-79
2023/05/20 03:31:16;;;;;;;1999.90;999.90;;;9.70;99.90;;;;;;5053027;28;20504;-72
2023/05/20 03:33:42;;;;;;;1999.90;999.90;;;9.70;99.90;;;;;;5053330;28;20361;-78
2023/05/20 03:36:07;;;;;;;1999.90;999.90;;;9.70;99.90;;;;;;5052868;28;20388;-78
2023/05/20 03:38:33;;;;;;;1999.90;999.90;;;9.70;99.90;;;;;;5052913;28;20028;-72
2023/05/20 03:40:58;;;;;;;1999.90;999.90;;;9.60;99.90;;;;;;5053328;28;20036;-79
2023/05/20 03:43:24;;;;;;;1999.90;999.90;;;9.60;99.90;;;;;;5052843;28;20033;-72
2023/05/20 03:45:50;;;;;;;1999.90;999.90;;;9.60;99.90;;;;;;5053091;28;20035;-72
2023/05/20 03:48:16;;;;;;;1999.90;999.90;;;9.60;99.90;;;;;;5052751;28;20029;-78
2023/05/20 03:50:41;;;;;;;1999.90;999.90;;;9.60;99.90;;;;;;5053014;28;20496;-79
2023/05/20 03:53:07;;;;;;;1999.90;999.90;;;9.50;99.90;;;;;;5052393;28;20033;-79
2023/05/20 03:55:33;;;;;;;1999.90;999.90;;;9.60;99.90;;;;;;5052737;28;20032;-79
2023/05/20 03:58:00;;;;;;;1999.90;999.90;;;9.50;99.90;;;;;;5034650;28;20440;-72
2023/05/20 04:00:25;;;;;;;1999.90;999.90;;;9.50;99.90;;;;;;5052488;28;20028;-72
2023/05/20 04:02:51;;;;;;;1999.90;999.90;;;9.50;99.90;;;;;;5052659;28;20033;-78
2023/05/20 04:05:17;;;;;;;1999.90;999.90;;;9.50;99.90;;;;;;5053150;28;20075;-78
2023/05/20 04:07:42;;;;;;;1999.90;999.90;;;9.50;99.90;;;;;;5064275;28;20132;-72
2023/05/20 04:10:09;;;;;;;1999.90;999.90;;;9.50;99.90;;;;;;5072770;28;20437;-72
2023/05/20 04:12:36;;;;;;;1999.90;999.90;;;9.50;99.90;;;;;;5072583;28;20025;-72
2023/05/20 04:15:02;;;;;;;1999.90;999.90;;;9.40;99.90;;;;;;5072884;28;20024;-78
2023/05/20 04:17:29;;;;;;;1999.90;999.90;;;9.40;99.90;;;;;;5051172;28;20018;-78
2023/05/20 04:19:58;;;;;;;1999.90;999.90;;;9.50;99.90;;;;;;5052724;28;20122;-78
2023/05/20 04:22:25;;;;;;;1999.90;999.90;;;9.40;99.90;;;;;;5051854;28;20032;-72
2023/05/20 04:24:51;;;;;;;1999.90;999.90;;;9.40;99.90;;;;;;5055035;28;20087;-72
2023/05/20 04:27:16;;;;;;;1999.90;999.90;;;9.40;99.90;;;;;;5072666;28;20569;-78
2023/05/20 04:29:44;;;;;;;1999.90;999.90;;;9.40;99.90;;;;;;5072760;28;20472;-78
2023/05/20 04:32:12;;;;;;;1999.90;999.90;;;9.40;99.90;;;;;;5072659;28;20429;-78
2023/05/20 04:34:38;;;;;;;1999.90;999.90;;;9.40;99.90;;;;;;5072692;28;20123;-78
2023/05/20 04:37:06;;;;;;;1999.90;999.90;;;9.40;99.90;;;;;;5072480;28;20028;-72
2023/05/20 04:39:32;;;;;;;1999.90;999.90;;;9.40;99.90;;;;;;5054835;28;20059;-72
2023/05/20 04:41:58;;;;;;;1999.90;999.90;;;9.40;99.90;;;;;;5072680;28;20032;-78
2023/05/20 04:44:25;;;;;;;1999.90;999.90;;;9.40;99.90;;;;;;5072519;28;20028;-78
2023/05/20 04:46:51;;;;;;;1999.90;999.90;;;9.50;99.90;;;;;;5072004;28;20020;-78
2023/05/20 04:49:17;;;;;;;1999.90;999.90;;;9.50;99.90;;;;;;5072284;28;20032;-72
2023/05/20 04:51:43;;;;;;;1999.90;999.90;;;9.50;99.90;;;;;;5072383;28;20021;-72
2023/05/20 04:54:08;;;;;;;1999.90;999.90;;;9.50;99.90;;;;;;5053704;28;20432;-78
2023/05/20 04:56:35;;;;;;;1999.90;999.90;;;9.50;99.90;;;;;;5072584;28;20053;-72
2023/05/20 04:59:01;;;;;;;1999.90;999.90;;;9.50;99.90;;;;;;5072236;28;20139;-78
2023/05/20 05:01:26;;;;;;;1999.90;999.90;;;9.60;99.90;;;;;;5071956;28;20094;-72
2023/05/20 05:03:52;;;;;;;1999.90;999.90;;;9.60;99.90;;;;;;5072153;28;20032;-78
2023/05/20 05:06:17;;;;;;;1999.90;999.90;;;9.60;99.90;;;;;;5072350;28;20036;-78
2023/05/20 05:08:43;;;;;;;1999.90;999.90;;;9.60;99.90;;;;;;5073690;28;20028;-79
2023/05/20 05:11:09;;;;;;;1999.90;999.90;;;9.60;99.90;;;;;;5057805;28;20080;-78
2023/05/20 05:13:34;;;;;;;1999.90;999.90;;;9.70;99.90;;;;;;5075502;28;20032;-78
2023/05/20 05:16:01;;;;;;;1999.90;999.90;;;9.70;99.90;;;;;;5075558;28;20495;-71
2023/05/20 05:18:26;;;;;;;1999.90;999.90;;;9.80;99.90;;;;;;5075648;28;20041;-72
2023/05/20 05:21:02;;;;;;;1999.90;999.90;;;9.80;99.90;;;;;;5076010;28;20061;-78
2023/05/20 05:23:28;;;;;;;1999.90;999.90;;;9.90;99.90;;;;;;5075607;28;20036;-78
2023/05/20 05:25:54;;;;;;;1999.90;999.90;;;9.90;99.90;;;;;;5075728;28;20086;-78
2023/05/20 05:28:19;;;;;;;1999.90;999.90;;;10.00;99.90;;;;;;5075263;28;20487;-78
2023/05/20 05:30:45;;;;;;;1999.90;999.90;;;10.00;99.90;;;;;;5075682;28;20372;-72
2023/05/20 05:33:12;;;;;;;1999.90;999.90;;;10.00;99.90;;;;;;5075616;28;20410;-78
2023/05/20 05:35:38;;;;;;;1999.90;999.90;;;10.10;99.90;;;;;;5075325;28;20048;-72
2023/05/20 05:38:03;;;;;;;1999.90;999.90;;;10.10;99.90;;;;;;5057392;28;20055;-72
2023/05/20 05:40:29;;;;;;;1999.90;999.90;;;10.20;99.90;;;;;;5075156;28;20056;-72
2023/05/20 05:42:54;;;;;;;1999.90;999.90;;;10.30;99.90;;;;;;5075452;28;20029;-78
2023/05/20 05:45:20;;;;;;;1999.90;999.90;;;10.40;99.90;;;;;;5075594;28;20028;-78
2023/05/20 05:47:46;;;;;;;1999.90;999.90;;;10.40;99.90;;;;;;5057005;28;20081;-78
2023/05/20 05:50:11;;;;;;;1999.90;999.90;;;10.50;99.90;;;;;;5074995;28;20484;-78
2023/05/20 05:52:37;;;;;;;1999.90;999.90;;;10.50;99.90;;;;;;5057044;28;20028;-78
2023/05/20 05:55:02;;;;;;;1999.90;999.90;;;10.60;99.90;;;;;;5074124;28;20074;-72
2023/05/20 05:57:28;;;;;;;1999.90;999.90;;;10.70;99.90;;;;;;5075156;28;20017;-72
2023/05/20 05:59:54;;;;;;;1999.90;999.90;;;10.70;99.90;;;;;;5074949;28;20028;-79
2023/05/20 06:02:20;;;;;;;1999.90;999.90;;;10.90;99.90;;;;;;5060601;28;20097;-72
2023/05/20 06:04:46;;;;;;;1999.90;999.90;;;10.90;99.90;;;;;;5036685;28;20029;-73
2023/05/20 06:07:12;;;;;;;1999.90;999.90;;;11.00;99.90;;;;;;5054809;28;20107;-72
2023/05/20 06:09:37;;;;;;;1999.90;999.90;;;11.00;99.90;;;;;;5054469;28;20099;-78
2023/05/20 06:12:03;;;;;;;1999.90;999.90;;;11.10;99.90;;;;;;5036832;28;20021;-78
2023/05/20 06:14:30;;;;;;;1999.90;999.90;;;11.20;99.90;;;;;;5054527;28;20364;-78
2023/05/20 06:16:56;;;;;;;1999.90;999.90;;;11.20;99.90;;;;;;5054306;28;20064;-78
2023/05/20 06:19:21;;;;;;;1999.90;999.90;;;11.30;99.90;;;;;;5054075;28;20029;-72
2023/05/20 06:21:47;;;;;;;1999.90;999.90;;;11.30;99.90;;;;;;5054210;28;20029;-72
2023/05/20 06:24:12;;;;;;;1999.90;999.90;;;11.40;99.90;;;;;;5054524;28;20477;-78
2023/05/20 06:26:38;;;;;;;1999.90;999.90;;;11.40;99.90;;;;;;5054775;28;20036;-71
2023/05/20 06:29:04;;;;;;;1999.90;999.90;;;11.50;99.90;;;;;;5053947;28;20068;-78
2023/05/20 06:31:29;;;;;;;1999.90;999.90;;;11.50;99.90;;;;;;5054180;28;20127;-72
2023/05/20 06:33:55;;;;;;;1999.90;999.90;;;11.60;99.90;;;;;;5054315;28;20021;-72
2023/05/20 06:36:21;;;;;;;1999.90;999.90;;;11.70;99.90;;;;;;5054256;28;20024;-72
2023/05/20 06:38:46;;;;;;;1999.90;999.90;;;11.80;99.90;;;;;;5054376;28;20029;-79
2023/05/20 06:41:12;;;;;;;1999.90;999.90;;;11.90;99.90;;;;;;5054158;28;20061;-72
2023/05/20 06:43:39;;;;;;;1999.90;999.90;;;12.00;99.90;;;;;;5053986;28;20116;-78
2023/05/20 06:46:05;;;;;;;1999.90;999.90;;;12.00;99.90;;;;;;5054278;28;20017;-72
2023/05/20 06:48:31;;;;;;;1999.90;999.90;;;12.20;99.90;;;;;;5054121;28;20051;-78
2023/05/20 06:50:56;;;;;;;1999.90;999.90;;;12.30;99.90;;;;;;5054129;28;20068;-79
2023/05/20 06:53:22;;;;;;;1999.90;999.90;;;12.40;99.90;;;;;;5054329;28;20075;-79
2023/05/20 06:55:48;;;;;;;1999.90;999.90;;;12.40;99.90;;;;;;5052739;28;20383;-79
2023/05/20 06:58:13;;;;;;;1999.90;999.90;;;12.50;99.90;;;;;;5054032;28;20471;-72
2023/05/20 07:00:40;;;;;;;1999.90;999.90;;;12.70;99.90;;;;;;5053611;28;20025;-72
2023/05/20 07:03:06;;;;;;;1999.90;999.90;;;12.70;99.90;;;;;;5053704;28;20031;-78
2023/05/20 07:05:31;;;;;;;1999.90;999.90;;;12.90;99.90;;;;;;5053453;28;20100;-78
2023/05/20 07:07:57;;;;;;;1999.90;999.90;;;13.00;99.90;;;;;;5064993;28;20088;-79
2023/05/20 07:10:22;;;;;;;1999.90;999.90;;;13.10;99.90;;;;;;5053403;28;20036;-78
2023/05/20 07:12:48;;;;;;;1999.90;999.90;;;13.20;99.90;;;;;;5053790;28;20108;-78
2023/05/20 07:15:13;;;;;;;1999.90;999.90;;;13.30;99.90;;;;;;5053507;28;20018;-72
2023/05/20 07:17:39;;;;;;;1999.90;999.90;;;13.50;99.90;;;;;;5053080;28;20100;-78
2023/05/20 07:20:05;;;;;;;1999.90;999.90;;;13.70;99.90;;;;;;5053335;28;20561;-79
2023/05/20 07:22:31;;;;;;;1999.90;999.90;;;13.80;99.90;;;;;;5053313;28;20155;-79
2023/05/20 07:24:58;;;;;;;1999.90;999.90;;;14.10;99.90;;;;;;5052920;28;20056;-73
2023/05/20 07:27:23;;;;;;;1999.90;999.90;;;14.30;99.90;;;;;;5052865;28;20376;-79
2023/05/20 07:29:49;;;;;;;1999.90;999.90;;;14.30;99.90;;;;;;5053064;28;20031;-79
2023/05/20 07:32:15;;;;;;;1999.90;999.90;;;14.40;99.90;;;;;;5052777;28;20102;-78
2023/05/20 07:34:41;;;;;;;1999.90;999.90;;;14.80;99.90;;;;;;5053328;28;20111;-79
2023/05/20 07:37:08;;;;;;;1999.90;999.90;;;15.10;99.90;;;;;;5052941;28;20064;-73
2023/05/20 07:39:34;;;;;;;1999.90;999.90;;;17.50;99.90;;;;;;5053085;28;20017;-73
2023/05/20 07:42:00;;;;;;;1999.90;999.90;;;19.20;99.90;;;;;;5053374;28;20116;-81
2023/05/20 07:44:26;;;;;;;1999.90;999.90;;;20.60;99.90;;;;;;5052765;28;20108;-75
2023/05/20 07:46:51;;;;;;;1999.90;999.90;;;21.80;99.90;;;;;;5053223;28;20029;-82
2023/05/20 07:49:17;;;;;;;1999.90;999.90;;;22.20;99.90;;;;;;5052623;28;20029;-81
2023/05/20 07:51:42;;;;;;;1999.90;999.90;;;22.60;99.90;;;;;;5052786;28;20028;-75
2023/05/20 07:54:08;;;;;;;1999.90;999.90;;;21.00;99.90;;;;;;5053156;28;20021;-75
2023/05/20 07:56:33;;;;;;;1999.90;999.90;;;20.20;99.90;;;;;;5051991;28;20113;-82
2023/05/20 07:59:02;;;;;;;1999.90;999.90;;;18.60;99.90;;;;;;5053099;28;20060;-76
2023/05/20 08:01:27;;;;;;;1999.90;999.90;;;17.70;99.90;;;;;;5045521;28;20116;-81
2023/05/20 08:03:53;;;;;;;1999.90;999.90;;;17.20;99.90;;;;;;5032710;28;20108;-75
2023/05/20 08:06:20;;;;;;;1999.90;999.90;;;17.00;99.90;;;;;;5033298;28;20033;-75
2023/05/20 08:08:46;;;;;;;1999.90;999.90;;;16.80;99.90;;;;;;5061453;28;20025;-75
2023/05/20 08:11:12;;;;;;;1999.90;999.90;;;16.90;99.90;;;;;;5072525;28;20024;-81
2023/05/20 08:13:38;;;;;;;1999.90;999.90;;;16.90;99.90;;;;;;5072531;28;20060;-82
2023/05/20 08:16:07;;;;;;;1999.90;999.90;;;17.00;99.90;;;;;;5072179;28;20436;-75
2023/05/20 08:18:36;;;;;;;1999.90;999.90;;;16.90;99.90;;;;;;5072771;28;20021;-74
2023/05/20 08:21:02;;;;;;;1999.90;999.90;;;17.00;99.90;;;;;;5072692;28;20058;-81
2023/05/20 08:23:28;;;;;;;1999.90;999.90;;;16.90;99.90;;;;;;5072896;28;20028;-82
2023/05/20 08:25:53;;;;;;;1999.90;999.90;;;17.10;99.90;;;;;;5054855;28;20082;-82
2023/05/20 08:28:19;;;;;;;1999.90;999.90;;;17.10;99.90;;;;;;5072421;28;20107;-81
2023/05/20 08:30:46;;;;;;;1999.90;999.90;;;17.30;99.90;;;;;;5072367;28;20024;-75
2023/05/20 08:33:12;;;;;;;1999.90;999.90;;;17.30;99.90;;;;;;5072466;28;20080;-75
2023/05/20 08:35:39;;;;;;;1999.90;999.90;;;17.40;99.90;;;;;;5072491;28;20020;-81
2023/05/20 08:38:05;;;;;;;1999.90;999.90;;;17.40;99.90;;;;;;5072558;28;20024;-81
2023/05/20 08:40:33;;;;;;;1999.90;999.90;;;17.60;99.90;;;;;;5072642;28;20025;-82
2023/05/20 08:43:00;;;;;;;1999.90;999.90;;;17.70;99.90;;;;;;5072671;28;20024;-75
2023/05/20 08:45:27;;;;;;;1999.90;999.90;;;17.50;99.90;;;;;;5076271;28;20498;-75
2023/05/20 08:47:53;;;;;;;1999.90;999.90;;;17.20;99.90;;;;;;5076216;28;20067;-75
2023/05/20 08:50:19;;;;;;;1999.90;999.90;;;16.70;99.90;;;;;;5076381;28;20028;-81
2023/05/20 08:52:46;;;;;;;1999.90;999.90;;;16.60;99.90;;;;;;5076646;28;20032;-81
2023/05/20 08:55:21;;;;;;;1999.90;999.90;;;16.40;99.90;;;;;;5076263;28;20024;-75
2023/05/20 08:57:50;;;;;;;1999.90;999.90;;;16.30;99.90;;;;;;5075096;28;20021;-82
2023/05/20 09:00:17;;;;;;;1999.90;999.90;;;16.40;99.90;;;;;;5076069;28;20021;-81
2023/05/20 09:02:44;;;;;;;1999.90;999.90;;;16.50;99.90;;;;;;5076203;28;20017;-82
2023/05/20 09:05:10;;;;;;;1999.90;999.90;;;16.60;99.90;;;;;;5076000;28;20013;-81
2023/05/20 09:07:36;;;;;;;1999.90;999.90;;;16.60;99.90;;;;;;5075785;28;20411;-75
2023/05/20 09:10:04;;;;;;;1999.90;999.90;;;16.50;99.90;;;;;;5075702;28;20028;-75
2023/05/20 09:12:29;;;;;;;1999.90;999.90;;;16.30;99.90;;;;;;5075597;28;20029;-75
2023/05/20 09:14:55;;;;;;;1999.90;999.90;;;16.30;99.90;;;;;;5075666;28;20020;-82
2023/05/20 09:17:22;;;;;;;1999.90;999.90;;;16.30;99.90;;;;;;5075870;28;20027;-75
2023/05/20 09:19:52;;;;;;;1999.90;999.90;;;16.50;99.90;;;;;;5075926;28;20029;-82
2023/05/20 09:22:26;;;;;;;1999.90;999.90;;;16.60;99.90;;;;;;5075336;28;20052;-82
2023/05/20 09:24:52;;;;;;;1999.90;999.90;;;16.90;99.90;;;;;;5075750;28;20024;-75
2023/05/20 09:27:21;;;;;;;1999.90;999.90;;;17.30;99.90;;;;;;5075600;28;20064;-75
2023/05/20 09:29:47;;;;;;;1999.90;999.90;;;18.10;99.90;;;;;;5075255;28;20029;-82
2023/05/20 09:32:14;;;;;;;1999.90;999.90;;;18.80;99.90;;;;;;5075279;28;20079;-82
2023/05/20 09:34:41;;;;;;;1999.90;999.90;;;19.60;99.90;;;;;;5075477;28;20392;-82
2023/05/20 09:37:08;;;;;;;1999.90;999.90;;;21.50;99.90;;;;;;5075081;28;20021;-75
2023/05/20 09:40:02;;;;;;;1999.90;999.90;;;21.90;99.90;;;;;;5075238;28;20052;-81
2023/05/20 09:42:49;;;;;;;1999.90;999.90;;;22.20;99.90;;;;;;5075068;28;20031;-82
2023/05/20 09:45:15;;;;;;;1999.90;999.90;;;23.20;99.90;;;;;;5075184;28;20518;-82
2023/05/20 09:47:42;;;;;;;1999.90;999.90;;;23.30;99.90;;;;;;5074740;28;20039;-76
2023/05/20 09:50:08;;;;;;;1999.90;999.90;;;22.30;99.90;;;;;;5075040;28;20048;-75
2023/05/20 09:52:38;;;;;;;1999.90;999.90;;;22.00;99.90;;;;;;5075373;28;20047;-82
2023/05/20 09:55:11;;;;;;;1999.90;999.90;;;23.10;99.90;;;;;;5075162;28;20033;-81
2023/05/20 09:57:37;;;;;;;1999.90;999.90;;;23.60;99.90;;;;;;5072761;28;20099;-79
2023/05/20 10:00:05;;;;;;;1999.90;999.90;;;24.20;99.90;;;;;;5074764;28;20507;-74
2023/05/20 10:02:32;;;;;;;1999.90;999.90;;;23.50;99.90;;;;;;5074373;28;20028;-73
2023/05/20 10:05:00;;;;;;;1999.90;999.90;;;23.10;99.90;;;;;;5075049;28;20024;-73
2023/05/20 10:07:32;;;;;;;1999.90;999.90;;;23.10;99.90;;;;;;5074611;28;20079;-79
2023/05/20 10:10:36;;;;;;;1999.90;999.90;;;23.70;99.90;;;;;;5074616;28;20040;-80
2023/05/20 10:13:20;;;;;;;1999.90;999.90;;;25.70;99.90;;;;;;5056301;28;20571;-73
2023/05/20 10:15:51;;;;;;;1999.90;999.90;;;24.70;99.90;;;;;;5074449;28;20029;-73
2023/05/20 10:18:55;;;;;;;1999.90;999.90;;;24.00;99.90;;;;;;5074603;28;20123;-79
2023/05/20 10:21:23;;;;;;;1999.90;999.90;;;22.90;99.90;;;;;;5074686;28;20029;-79
2023/05/20 10:23:50;;;;;;;1999.90;999.90;;;22.60;99.90;;;;;;5074528;28;20051;-79
2023/05/20 10:26:15;;;;;;;1999.90;999.90;;;22.60;99.90;;;;;;5073448;28;20047;-73
2023/05/20 10:28:41;;;;;;;1999.90;999.90;;;22.30;99.90;;;;;;5074537;28;20487;-79
2023/05/20 10:31:19;;;;;;;1999.90;999.90;;;22.70;99.90;;;;;;5074241;28;20490;-73
2023/05/20 10:33:46;;;;;;;1999.90;999.90;;;22.30;99.90;;;;;;5074589;28;20031;-79
2023/05/20 10:36:29;;;;;;;1999.90;999.90;;;22.30;99.90;;;;;;5074226;28;20017;-79
2023/05/20 10:38:56;;;;;;;1999.90;999.90;;;22.30;99.90;;;;;;5074168;28;20017;-79
2023/05/20 10:41:27;;;;;;;1999.90;999.90;;;22.00;99.90;;;;;;5074139;28;20031;-73
2023/05/20 10:44:19;;;;;;;1999.90;999.90;;;22.20;99.90;;;;;;5074322;28;20032;-73
2023/05/20 10:46:45;;;;;;;1999.90;999.90;;;22.70;99.90;;;;;;5070231;28;20044;-73
2023/05/20 10:49:18;;;;;;;1999.90;999.90;;;23.10;99.90;;;;;;5073901;28;20029;-79
2023/05/20 10:51:45;;;;;;;1999.90;999.90;;;23.00;99.90;;;;;;5073773;28;20550;-73
2023/05/20 10:54:12;;;;;;;1999.90;999.90;;;23.40;99.90;;;;;;5074231;28;20091;-73
2023/05/20 10:56:49;;;;;;;1999.90;999.90;;;22.90;99.90;;;;;;5056213;28;20135;-73
2023/05/20 10:59:14;;;;;;;1999.90;999.90;;;22.20;99.90;;;;;;5072743;28;20027;-79
2023/05/20 11:01:42;;;;;;;1999.90;999.90;;;22.10;99.90;;;;;;5073163;28;20032;-78
2023/05/20 11:04:08;;;;;;;1999.90;999.90;;;21.60;99.90;;;;;;5073846;28;20025;-72
2023/05/20 11:06:33;;;;;;;1999.90;999.90;;;21.30;99.90;;;;;;5070928;28;20043;-79
2023/05/20 11:09:06;;;;;;;1999.90;999.90;;;21.40;99.90;;;;;;5053589;28;20504;-73
2023/05/20 11:11:31;;;;;;;1999.90;999.90;;;21.40;99.90;;;;;;5053595;28;20033;-79
2023/05/20 11:13:57;;;;;;;1999.90;999.90;;;21.50;99.90;;;;;;5053339;28;20079;-79
2023/05/20 11:16:23;;;;;;;1999.90;999.90;;;21.40;99.90;;;;;;5053513;28;20403;-79
2023/05/20 11:18:49;;;;;;;1999.90;999.90;;;21.60;99.90;;;;;;5052922;28;20032;-73
2023/05/20 11:21:15;;;;;;;1999.90;999.90;;;21.90;99.90;;;;;;5053910;28;20029;-73
2023/05/20 11:23:41;;;;;;;1999.90;999.90;;;22.20;99.90;;;;;;5053490;28;20114;-79
2023/05/20 11:26:06;;;;;;;1999.90;999.90;;;22.30;99.90;;;;;;5053408;28;20052;-79
2023/05/20 11:28:34;;;;;;;1999.90;999.90;;;22.40;99.90;;;;;;5053320;28;20068;-79
2023/05/20 11:31:00;;;;;;;1999.90;999.90;;;22.30;99.90;;;;;;5053152;28;20484;-73
2023/05/20 11:33:26;;;;;;;1999.90;999.90;;;22.80;99.90;;;;;;5035426;28;20028;-73
2023/05/20 11:35:52;;;;;;;1999.90;999.90;;;23.00;99.90;;;;;;5053367;28;20032;-73
2023/05/20 11:38:20;;;;;;;1999.90;999.90;;;22.80;99.90;;;;;;5053109;28;20369;-80
2023/05/20 11:40:49;;;;;;;1999.90;999.90;;;23.40;99.90;;;;;;5053210;28;20029;-80
2023/05/20 11:43:15;;;;;;;1999.90;999.90;;;24.80;99.90;;;;;;5035134;28;20436;-74
2023/05/20 11:45:43;;;;;;;1999.90;999.90;;;25.70;99.90;;;;;;5051170;28;20033;-80
2023/05/20 11:48:10;;;;;;;1999.90;999.90;;;25.40;99.80;;;;;;5053017;28;20488;-73
2023/05/20 11:50:42;;;;;;;1999.90;999.90;;;24.40;99.90;;;;;;5053010;28;20029;-80
2023/05/20 11:53:10;;;;;;;1999.90;999.90;;;24.10;99.90;;;;;;5053365;28;20133;-74
2023/05/20 11:55:56;;;;;;;1999.90;999.90;;;24.40;99.90;;;;;;5052914;28;20104;-74
2023/05/20 11:58:23;;;;;;;1999.90;999.90;;;24.50;99.90;;;;;;5053024;28;20027;-73
2023/05/20 12:00:49;;;;;;;1999.90;999.90;;;24.20;99.90;;;;;;5050432;28;20031;-73